Quimby, Maine
Current Conditions -  °F | °C
As of 1:53 PM on Thursday 30 Oct 2014 (Local Time) from KFVE Reporting Station
Overcast Overcast  
Wind Chill: 39°   Ceiling: 5000
Heat Index: 44°   Visibility: 10mi
Dew Point: 28°   Wind: 10mph
Humidity: 53%   Direction: 300°WNW
Pressure: 29.8"   Gusts: NA
Location:  46.96°N, 68.61°W
Report Text: KFVE 301753Z AUTO 30009KT 10SM OVC050 07/M02 A2980 RMK AO2 SLP096 T00671022 10083 20033 53002
Loading
Personal Weather Stations






























Interactive Weather Map
Tropical Storm Tracking
New forecast layout! Learn more

10-Day Weather Forecast

Advertisements
Track Severe Weather on mobile